createdAt,value
2019-05-06T00:00:52.537Z,2.50
2019-05-06T00:03:10.396Z,3.00
2019-05-06T00:05:40.680Z,2.60
2019-05-06T00:08:11.876Z,2.67
2019-05-06T00:10:42.056Z,2.37
2019-05-06T00:13:14.017Z,2.73
2019-05-06T00:15:45.100Z,2.90
2019-05-06T00:18:15.425Z,2.77
2019-05-06T00:20:45.679Z,2.80
2019-05-06T00:23:21.879Z,2.50
2019-05-06T00:26:17.504Z,2.80
2019-05-06T00:28:51.048Z,2.77
2019-05-06T00:31:23.819Z,2.63
2019-05-06T00:33:53.991Z,2.67
2019-05-06T00:36:24.458Z,3.10
2019-05-06T00:38:58.673Z,2.60
2019-05-06T00:41:36.330Z,2.60
2019-05-06T00:44:05.372Z,2.67
2019-05-06T00:46:35.586Z,2.80
2019-05-06T00:49:05.760Z,2.90
2019-05-06T00:51:35.914Z,2.90
2019-05-06T00:54:14.278Z,2.83
2019-05-06T00:56:44.851Z,2.70
2019-05-06T00:59:15.052Z,2.70
2019-05-06T01:01:45.500Z,3.20
2019-05-06T01:04:15.844Z,2.83
2019-05-06T01:06:47.197Z,2.90
2019-05-06T01:09:18.754Z,2.80
2019-05-06T01:11:50.587Z,2.80
2019-05-06T01:14:26.848Z,2.70
2019-05-06T01:16:57.370Z,2.60
2019-05-06T01:19:27.780Z,2.50
2019-05-06T01:21:57.945Z,2.93
2019-05-06T01:24:28.166Z,2.57
2019-05-06T01:26:59.515Z,2.63
2019-05-06T01:29:29.737Z,2.70
2019-05-06T01:31:59.959Z,2.73
2019-05-06T01:34:30.115Z,3.00
2019-05-06T01:37:00.435Z,2.30
2019-05-06T01:39:55.382Z,2.70
2019-05-06T01:43:16.392Z,2.67
2019-05-06T01:45:57.472Z,3.00
2019-05-06T01:48:45.245Z,2.90
2019-05-06T01:51:15.552Z,2.70
2019-05-06T01:53:45.927Z,2.90
2019-05-06T01:56:16.188Z,2.77
2019-05-06T01:58:47.815Z,2.67
2019-05-06T02:01:18.077Z,3.17
2019-05-06T02:03:48.608Z,2.80
2019-05-06T02:06:18.728Z,2.97
2019-05-06T02:08:50.075Z,3.30
2019-05-06T02:11:20.401Z,3.37
2019-05-06T02:13:50.622Z,3.50
2019-05-06T02:16:20.851Z,3.43
2019-05-06T02:18:51.167Z,3.20
2019-05-06T02:21:40.335Z,2.87
2019-05-06T02:24:15.151Z,3.27
2019-05-06T02:26:46.453Z,3.30
2019-05-06T02:29:18.581Z,3.40
2019-05-06T02:32:15.998Z,3.20
2019-05-06T02:34:46.274Z,3.50
2019-05-06T02:37:22.027Z,3.30
2019-05-06T02:39:53.350Z,3.20
2019-05-06T02:42:24.110Z,3.00
2019-05-06T02:44:54.569Z,3.00
2019-05-06T02:47:43.644Z,3.30
2019-05-06T02:50:16.961Z,3.40
2019-05-06T02:52:47.309Z,3.30
2019-05-06T02:55:17.491Z,3.00
2019-05-06T02:57:47.789Z,3.03
2019-05-06T03:00:19.841Z,3.20
2019-05-06T03:02:49.684Z,3.17
2019-05-06T03:05:19.547Z,3.07
2019-05-06T03:07:49.414Z,3.30
2019-05-06T03:10:19.461Z,3.43
2019-05-06T03:12:49.320Z,3.63
2019-05-06T03:15:19.156Z,3.60
2019-05-06T03:17:49.074Z,3.20
2019-05-06T03:20:39.999Z,3.07
2019-05-06T03:23:13.984Z,3.27
2019-05-06T03:25:44.063Z,3.10
2019-05-06T03:28:14.540Z,3.43
2019-05-06T03:30:46.122Z,3.20
2019-05-06T03:33:54.266Z,3.00
2019-05-06T03:36:00.706Z,3.33
2019-05-06T03:38:38.729Z,3.10
2019-05-06T03:41:09.925Z,2.93
2019-05-06T03:43:43.098Z,3.30
2019-05-06T03:46:35.045Z,3.30
2019-05-06T03:49:06.651Z,2.83
2019-05-06T03:51:37.084Z,3.00
2019-05-06T03:54:07.185Z,3.00
2019-05-06T03:56:38.649Z,3.10
2019-05-06T03:59:13.207Z,3.00
2019-05-06T04:01:43.064Z,2.90
2019-05-06T04:04:14.025Z,3.10
2019-05-06T04:06:44.339Z,3.10
2019-05-06T04:09:14.702Z,3.43
2019-05-06T04:11:45.878Z,3.10
2019-05-06T04:14:18.071Z,3.40
2019-05-06T04:16:57.629Z,3.20
2019-05-06T04:19:33.390Z,3.40
2019-05-06T04:22:43.824Z,3.53
2019-05-06T04:25:33.877Z,3.37
2019-05-06T04:28:24.021Z,3.40
2019-05-06T04:30:55.355Z,3.50
2019-05-06T04:33:26.236Z,3.40
2019-05-06T04:35:56.792Z,3.60
2019-05-06T04:38:27.149Z,3.13
2019-05-06T04:40:57.880Z,3.27
2019-05-06T04:43:28.589Z,3.50
2019-05-06T04:45:59.059Z,3.10
2019-05-06T04:48:29.345Z,3.70
2019-05-06T04:51:03.070Z,3.53
2019-05-06T04:53:33.760Z,3.37
2019-05-06T04:56:04.301Z,3.20
2019-05-06T04:58:34.758Z,3.20
2019-05-06T05:01:05.227Z,2.60
2019-05-06T05:03:35.337Z,3.10
2019-05-06T05:06:05.959Z,2.67
2019-05-06T05:08:39.365Z,2.97
2019-05-06T05:11:29.559Z,3.00
2019-05-06T05:14:26.203Z,2.90
2019-05-06T05:17:15.716Z,2.70
2019-05-06T05:19:47.347Z,2.50
2019-05-06T05:22:17.596Z,2.30
2019-05-06T05:24:47.736Z,2.87
2019-05-06T05:27:18.002Z,2.50
2019-05-06T05:29:48.332Z,2.50
2019-05-06T05:32:18.596Z,2.70
2019-05-06T05:34:49.137Z,2.70
2019-05-06T05:37:22.616Z,2.60
2019-05-06T05:39:52.775Z,2.43
2019-05-06T05:42:47.964Z,2.47
2019-05-06T05:45:18.389Z,2.90
2019-05-06T05:47:52.277Z,2.90
2019-05-06T05:50:33.067Z,2.77
2019-05-06T05:53:04.351Z,2.73
2019-05-06T05:55:35.254Z,2.40
2019-05-06T05:58:05.712Z,2.87
2019-05-06T06:00:36.419Z,2.73
2019-05-06T06:03:07.430Z,2.67
2019-05-06T06:05:37.731Z,2.50
2019-05-06T06:08:08.007Z,2.53
2019-05-06T06:10:52.585Z,2.43
2019-05-06T06:13:23.350Z,2.53
2019-05-06T06:16:12.919Z,2.77
2019-05-06T06:18:56.409Z,2.93
2019-05-06T06:21:33.206Z,2.47
2019-05-06T06:24:22.553Z,2.57
2019-05-06T06:26:53.143Z,2.97
2019-05-06T06:29:23.357Z,2.40
2019-05-06T06:32:13.750Z,3.00
2019-05-06T06:35:10.644Z,2.70
2019-05-06T06:38:02.765Z,2.57
2019-05-06T06:40:34.126Z,2.40
2019-05-06T06:43:08.241Z,2.50
2019-05-06T06:45:38.443Z,2.90
2019-05-06T06:48:08.666Z,2.60
2019-05-06T06:50:39.008Z,2.80
2019-05-06T06:53:09.182Z,2.63
2019-05-06T06:55:42.669Z,2.60
2019-05-06T06:58:22.785Z,2.53
2019-05-06T07:01:17.652Z,2.30
2019-05-06T07:03:57.631Z,2.97
2019-05-06T07:06:39.608Z,2.90
2019-05-06T07:09:12.424Z,2.93
2019-05-06T07:11:43.062Z,3.03
2019-05-06T07:14:13.697Z,3.20
2019-05-06T07:16:45.056Z,3.07
2019-05-06T07:19:18.118Z,2.50
2019-05-06T07:21:54.379Z,2.40
2019-05-06T07:24:24.592Z,2.70
2019-05-06T07:27:02.879Z,3.00
2019-05-06T07:29:32.803Z,2.70
2019-05-06T07:32:03.593Z,2.97
2019-05-06T07:34:33.781Z,2.40
2019-05-06T07:37:05.184Z,2.60
2019-05-06T07:39:35.595Z,3.00
2019-05-06T07:42:13.270Z,2.70
2019-05-06T07:45:06.607Z,3.07
2019-05-06T07:47:42.448Z,2.50
2019-05-06T07:50:13.072Z,2.70
2019-05-06T07:53:02.459Z,2.87
2019-05-06T07:55:33.078Z,2.37
2019-05-06T07:58:04.632Z,2.33
2019-05-06T08:00:35.297Z,3.50
2019-05-06T08:03:05.927Z,3.30
2019-05-06T08:05:36.287Z,3.07
2019-05-06T08:08:06.809Z,2.40
2019-05-06T08:10:37.241Z,2.73
2019-05-06T08:13:07.396Z,2.87
2019-05-06T08:15:38.392Z,3.00
2019-05-06T08:18:08.894Z,2.70
2019-05-06T08:20:39.366Z,2.63
2019-05-06T08:23:27.812Z,2.93
2019-05-06T08:26:11.538Z,2.80
2019-05-06T08:28:38.615Z,3.03
2019-05-06T08:31:02.394Z,2.80
2019-05-06T08:33:32.864Z,2.43
2019-05-06T08:36:11.712Z,2.83
2019-05-06T08:38:58.920Z,2.70
2019-05-06T08:41:29.683Z,2.87
2019-05-06T08:44:02.406Z,2.40
2019-05-06T08:46:32.822Z,2.70
2019-05-06T08:49:03.294Z,2.87
2019-05-06T08:51:42.788Z,2.63
2019-05-06T08:54:28.572Z,2.60
2019-05-06T08:56:59.022Z,2.87
2019-05-06T08:59:29.095Z,2.50
2019-05-06T09:02:03.062Z,2.30
2019-05-06T09:04:32.259Z,2.67
2019-05-06T09:07:03.045Z,2.90
2019-05-06T09:09:33.259Z,2.20
2019-05-06T09:12:03.322Z,2.63
2019-05-06T09:14:33.555Z,2.57
2019-05-06T09:17:04.215Z,2.70
2019-05-06T09:19:34.456Z,2.50
2019-05-06T09:22:04.622Z,2.23
2019-05-06T09:24:34.946Z,2.67
2019-05-06T09:27:20.036Z,2.50
2019-05-06T09:29:52.853Z,2.30
2019-05-06T09:32:43.580Z,2.57
2019-05-06T09:35:14.237Z,2.60
2019-05-06T09:37:44.464Z,2.97
2019-05-06T09:40:15.224Z,2.67
2019-05-06T09:42:45.727Z,2.80
2019-05-06T09:45:16.532Z,2.60
2019-05-06T09:48:09.488Z,2.47
2019-05-06T09:50:46.081Z,2.40
2019-05-06T09:53:22.957Z,2.40
2019-05-06T09:56:13.208Z,2.27
2019-05-06T09:58:45.014Z,2.70
2019-05-06T10:01:15.707Z,2.60
2019-05-06T10:03:45.870Z,2.53
2019-05-06T10:06:16.126Z,2.70
2019-05-06T10:08:46.527Z,2.53
2019-05-06T10:11:17.020Z,2.40
2019-05-06T10:13:47.771Z,2.60
2019-05-06T10:16:18.152Z,2.43
2019-05-06T10:18:48.560Z,2.83
2019-05-06T10:21:18.852Z,2.20
2019-05-06T10:23:49.279Z,2.63
2019-05-06T10:26:19.465Z,2.87
2019-05-06T10:29:14.402Z,2.60
2019-05-06T10:31:49.061Z,2.50
2019-05-06T10:34:19.455Z,2.27
2019-05-06T10:37:12.624Z,2.50
2019-05-06T10:39:37.896Z,2.43
2019-05-06T10:42:13.041Z,2.20
2019-05-06T10:44:53.904Z,2.33
2019-05-06T10:47:24.147Z,2.10
2019-05-06T10:49:54.422Z,2.47
2019-05-06T10:52:33.359Z,2.50
2019-05-06T10:55:03.591Z,2.50
2019-05-06T10:57:42.947Z,2.73
2019-05-06T11:00:13.440Z,3.00
2019-05-06T11:03:02.393Z,2.80
2019-05-06T11:05:32.674Z,2.70
2019-05-06T11:08:03.918Z,2.60
2019-05-06T11:10:40.850Z,2.50
2019-05-06T11:13:06.445Z,3.10
2019-05-06T11:15:36.962Z,2.50
2019-05-06T11:18:07.748Z,2.50
2019-05-06T11:20:37.927Z,3.00
2019-05-06T11:23:08.219Z,2.40
2019-05-06T11:25:38.216Z,2.43
2019-05-06T11:28:27.108Z,2.60
2019-05-06T11:31:09.020Z,2.47
2019-05-06T11:33:46.283Z,2.17
2019-05-06T11:36:25.287Z,2.13
2019-05-06T11:38:55.784Z,2.03
2019-05-06T11:41:25.732Z,2.20
2019-05-06T11:43:55.780Z,2.27
2019-05-06T11:46:25.856Z,2.10
2019-05-06T11:48:55.902Z,1.90
2019-05-06T11:51:27.512Z,1.90
2019-05-06T11:53:57.498Z,2.20
2019-05-06T11:56:27.407Z,1.93
2019-05-06T11:58:58.233Z,1.97
2019-05-06T12:01:43.438Z,2.10
2019-05-06T12:04:13.886Z,1.93
2019-05-06T12:06:44.657Z,1.70
2019-05-06T12:09:17.078Z,2.03
2019-05-06T12:11:46.935Z,2.07
2019-05-06T12:14:17.125Z,1.60
2019-05-06T12:16:48.165Z,1.63
2019-05-06T12:19:18.108Z,1.67
2019-05-06T12:21:48.213Z,1.60
2019-05-06T12:24:18.209Z,1.90
2019-05-06T12:26:48.672Z,2.33
2019-05-06T12:29:18.925Z,1.70
2019-05-06T12:31:54.556Z,1.97
2019-05-06T12:34:24.596Z,2.00
2019-05-06T12:36:57.295Z,1.80
2019-05-06T12:39:29.893Z,2.00
2019-05-06T12:42:25.580Z,1.87
2019-05-06T12:45:24.039Z,1.67
2019-05-06T12:47:57.793Z,1.50
2019-05-06T12:50:28.372Z,1.80
2019-05-06T12:52:58.604Z,1.70
2019-05-06T12:55:28.596Z,1.80
2019-05-06T12:57:58.626Z,1.60
2019-05-06T13:00:30.371Z,1.80
2019-05-06T13:03:02.304Z,1.63
2019-05-06T13:05:32.069Z,1.80
2019-05-06T13:08:05.084Z,2.30
2019-05-06T13:10:34.064Z,2.30
2019-05-06T13:13:05.079Z,2.20
2019-05-06T13:15:35.084Z,2.00
2019-05-06T13:18:07.399Z,2.07
2019-05-06T13:20:38.213Z,2.17
2019-05-06T13:23:34.999Z,2.07
2019-05-06T13:26:04.020Z,2.40
2019-05-06T13:28:36.522Z,2.37
2019-05-06T13:31:17.352Z,2.10
2019-05-06T13:33:54.528Z,1.77
2019-05-06T13:36:24.694Z,1.43
2019-05-06T13:39:09.714Z,1.80
2019-05-06T13:41:26.331Z,1.70
2019-05-06T13:44:05.992Z,2.43
2019-05-06T13:46:39.386Z,2.07
2019-05-06T13:49:30.003Z,2.00
2019-05-06T13:52:05.008Z,1.93
2019-05-06T13:54:54.467Z,1.80
2019-05-06T13:57:24.677Z,2.20
2019-05-06T13:59:54.688Z,1.87
2019-05-06T14:02:45.801Z,1.80
2019-05-06T14:05:16.188Z,2.00
2019-05-06T14:07:47.230Z,1.82
2019-05-06T14:10:17.821Z,1.87
2019-05-06T14:12:47.801Z,1.65
2019-05-06T14:15:17.828Z,1.77
2019-05-06T14:17:47.910Z,1.65
2019-05-06T14:20:18.079Z,1.72
2019-05-06T14:22:48.100Z,1.70
2019-05-06T14:25:49.097Z,1.80
2019-05-06T14:28:43.824Z,2.22
2019-05-06T14:31:26.025Z,2.50
2019-05-06T14:33:55.940Z,2.17
2019-05-06T14:36:27.763Z,2.40
2019-05-06T14:38:57.523Z,2.40
2019-05-06T14:41:29.230Z,2.27
2019-05-06T14:43:59.159Z,2.00
2019-05-06T14:46:47.887Z,2.08
2019-05-06T14:49:17.893Z,1.77
2019-05-06T14:51:47.987Z,1.85
2019-05-06T14:54:18.072Z,2.17
2019-05-06T14:56:53.900Z,2.15
2019-05-06T14:59:24.756Z,2.33
2019-05-06T15:01:54.810Z,2.10
2019-05-06T15:04:24.884Z,2.00
2019-05-06T15:06:55.960Z,1.90
2019-05-06T15:09:25.957Z,1.70
2019-05-06T15:11:56.009Z,1.82
2019-05-06T15:14:25.979Z,2.25
2019-05-06T15:16:55.980Z,2.17
2019-05-06T15:19:25.881Z,2.42
2019-05-06T15:21:55.796Z,2.22
2019-05-06T15:24:25.879Z,2.30
2019-05-06T15:26:55.940Z,2.00
2019-05-06T15:29:26.080Z,1.80
2019-05-06T15:32:07.158Z,1.92
2019-05-06T15:34:45.836Z,2.08
2019-05-06T15:37:42.462Z,1.47
2019-05-06T15:40:12.787Z,1.90
2019-05-06T15:42:42.736Z,1.65
2019-05-06T15:45:13.130Z,1.50
2019-05-06T15:47:43.264Z,1.40
2019-05-06T15:50:14.044Z,1.50
2019-05-06T15:52:44.038Z,1.60
2019-05-06T15:55:14.043Z,1.45
2019-05-06T15:57:44.472Z,1.27
2019-05-06T16:00:16.585Z,1.57
2019-05-06T16:02:46.689Z,1.37
2019-05-06T16:05:20.090Z,1.65
2019-05-06T16:07:48.681Z,1.50
2019-05-06T16:10:22.393Z,1.77
2019-05-06T16:12:53.426Z,1.70
2019-05-06T16:15:24.868Z,2.07
2019-05-06T16:17:54.864Z,2.20
2019-05-06T16:20:24.991Z,2.00
2019-05-06T16:23:03.392Z,1.83
2019-05-06T16:25:33.624Z,1.80
2019-05-06T16:28:03.627Z,1.90
2019-05-06T16:30:33.927Z,1.70
2019-05-06T16:33:04.203Z,1.47
2019-05-06T16:35:34.155Z,1.60
2019-05-06T16:38:04.331Z,1.60
2019-05-06T16:40:34.259Z,1.60
2019-05-06T16:43:04.310Z,2.00
2019-05-06T16:45:36.095Z,2.00
2019-05-06T16:48:06.470Z,1.80
2019-05-06T16:50:36.503Z,1.60
2019-05-06T16:53:06.474Z,1.70
2019-05-06T16:56:14.328Z,1.80
2019-05-06T16:58:52.388Z,1.60
2019-05-06T17:01:22.186Z,1.70
2019-05-06T17:04:03.121Z,1.50
2019-05-06T17:06:38.021Z,1.87
2019-05-06T17:09:20.113Z,1.70
2019-05-06T17:11:42.816Z,1.50
2019-05-06T17:14:12.765Z,1.60
2019-05-06T17:16:42.670Z,1.33
2019-05-06T17:19:12.900Z,1.53
2019-05-06T17:21:43.074Z,1.50
2019-05-06T17:24:13.255Z,1.63
2019-05-06T17:26:44.669Z,1.50
2019-05-06T17:29:32.718Z,1.57
2019-05-06T17:32:22.527Z,1.80
2019-05-06T17:34:57.169Z,1.40
2019-05-06T17:38:03.069Z,1.40
2019-05-06T17:40:33.441Z,1.30
2019-05-06T17:43:03.904Z,1.40
2019-05-06T17:46:01.716Z,1.40
2019-05-06T17:48:49.721Z,1.50
2019-05-06T17:51:33.045Z,1.40
2019-05-06T17:54:03.563Z,1.23
2019-05-06T17:56:33.523Z,1.70
2019-05-06T17:59:05.243Z,1.30
2019-05-06T18:01:42.132Z,1.40
2019-05-06T18:04:12.703Z,1.40
2019-05-06T18:06:43.291Z,1.40
2019-05-06T18:09:13.159Z,1.40
2019-05-06T18:11:57.585Z,1.50
2019-05-06T18:14:15.130Z,1.60
2019-05-06T18:16:46.205Z,1.53
2019-05-06T18:19:16.113Z,1.10
2019-05-06T18:21:46.011Z,1.50
2019-05-06T18:24:16.200Z,1.60
2019-05-06T18:26:46.199Z,1.30
2019-05-06T18:29:16.111Z,1.63
2019-05-06T18:31:45.987Z,1.97
2019-05-06T18:34:15.962Z,1.70
2019-05-06T18:36:45.945Z,2.27
2019-05-06T18:39:15.824Z,2.20
2019-05-06T18:41:45.995Z,1.90
2019-05-06T18:44:15.984Z,2.43
2019-05-06T18:46:47.318Z,2.40
2019-05-06T18:49:17.331Z,2.20
2019-05-06T18:51:47.438Z,2.23
2019-05-06T18:54:19.003Z,2.37
2019-05-06T18:56:49.179Z,2.50
2019-05-06T18:59:19.679Z,2.83
2019-05-06T19:01:53.602Z,2.33
2019-05-06T19:04:52.131Z,2.60
2019-05-06T19:07:22.395Z,2.80
2019-05-06T19:10:04.497Z,2.73
2019-05-06T19:12:40.465Z,2.70
2019-05-06T19:15:07.306Z,2.77
2019-05-06T19:17:37.362Z,2.50
2019-05-06T19:20:07.939Z,2.83
2019-05-06T19:22:38.001Z,3.10
2019-05-06T19:25:08.364Z,3.00
2019-05-06T19:27:38.401Z,3.07
2019-05-06T19:30:08.418Z,3.60
2019-05-06T19:32:38.360Z,2.80
2019-05-06T19:35:08.580Z,3.20
2019-05-06T19:37:38.561Z,2.80
2019-05-06T19:40:08.953Z,2.57
2019-05-06T19:42:47.027Z,2.50
2019-05-06T19:45:12.959Z,2.80
2019-05-06T19:47:43.303Z,2.50
2019-05-06T19:50:13.719Z,2.80
2019-05-06T19:52:43.653Z,3.00
2019-05-06T19:55:13.671Z,2.80
2019-05-06T19:57:47.068Z,2.83
2019-05-06T20:00:18.759Z,3.03
2019-05-06T20:02:49.494Z,2.83
2019-05-06T20:05:27.506Z,2.93
2019-05-06T20:08:13.432Z,3.13
2019-05-06T20:11:14.167Z,2.97
2019-05-06T20:13:44.036Z,3.20
2019-05-06T20:16:14.103Z,2.87
2019-05-06T20:18:43.987Z,3.10
2019-05-06T20:21:14.027Z,2.67
2019-05-06T20:23:43.866Z,2.97
2019-05-06T20:26:13.719Z,3.00
2019-05-06T20:28:46.561Z,3.40
2019-05-06T20:31:16.785Z,3.90
2019-05-06T20:33:47.209Z,4.00
2019-05-06T20:36:17.420Z,3.13
2019-05-06T20:38:48.069Z,2.90
2019-05-06T20:41:18.244Z,2.67
2019-05-06T20:43:48.405Z,2.93
2019-05-06T20:46:18.526Z,2.60
2019-05-06T20:48:50.119Z,3.13
2019-05-06T20:51:21.955Z,2.80
2019-05-06T20:53:52.350Z,4.80
2019-05-06T20:56:22.596Z,3.43
2019-05-06T20:58:53.014Z,3.30
2019-05-06T21:01:23.338Z,3.07
2019-05-06T21:03:53.511Z,3.50
2019-05-06T21:06:23.680Z,3.13
2019-05-06T21:08:54.960Z,3.70
2019-05-06T21:11:28.930Z,3.63
2019-05-06T21:13:57.625Z,3.40
2019-05-06T21:16:27.876Z,3.63
2019-05-06T21:18:58.647Z,3.07
2019-05-06T21:21:29.107Z,3.10
2019-05-06T21:23:59.315Z,3.00
2019-05-06T21:26:29.496Z,3.07
2019-05-06T21:28:59.615Z,3.37
2019-05-06T21:31:29.892Z,3.43
2019-05-06T21:34:00.307Z,3.40
2019-05-06T21:36:30.542Z,3.60
2019-05-06T21:39:01.979Z,3.03
2019-05-06T21:41:32.759Z,3.10
2019-05-06T21:44:03.014Z,3.20
2019-05-06T21:46:33.359Z,3.67
2019-05-06T21:49:04.109Z,3.40
2019-05-06T21:51:34.367Z,3.30
2019-05-06T21:54:04.552Z,3.33
2019-05-06T21:56:34.831Z,3.53
2019-05-06T21:59:05.099Z,3.73
2019-05-06T22:01:36.120Z,3.57
2019-05-06T22:04:06.452Z,2.93
2019-05-06T22:06:36.635Z,3.60
2019-05-06T22:09:08.045Z,3.43
2019-05-06T22:11:38.464Z,3.50
2019-05-06T22:14:09.298Z,3.30
2019-05-06T22:16:40.031Z,3.23
2019-05-06T22:19:12.123Z,3.50
2019-05-06T22:21:58.683Z,3.40
2019-05-06T22:24:42.619Z,3.23
2019-05-06T22:27:12.612Z,2.97
2019-05-06T22:29:42.946Z,2.97
2019-05-06T22:32:15.026Z,3.20
2019-05-06T22:34:45.228Z,3.13
2019-05-06T22:37:15.701Z,3.10
2019-05-06T22:39:46.024Z,3.43
2019-05-06T22:42:16.292Z,3.40
2019-05-06T22:44:46.471Z,3.50
2019-05-06T22:47:18.072Z,3.80
2019-05-06T22:49:48.348Z,3.90
2019-05-06T22:52:18.509Z,3.63
2019-05-06T22:54:48.997Z,3.57
2019-05-06T22:57:20.351Z,3.20
2019-05-06T22:59:52.354Z,3.33
2019-05-06T23:02:32.182Z,3.40
2019-05-06T23:05:04.543Z,3.13
2019-05-06T23:07:34.649Z,3.33
2019-05-06T23:10:05.564Z,3.40
2019-05-06T23:12:35.911Z,3.80
2019-05-06T23:15:07.280Z,3.57
2019-05-06T23:17:37.584Z,3.67
2019-05-06T23:20:08.317Z,3.37
2019-05-06T23:22:38.640Z,3.40
2019-05-06T23:25:09.208Z,3.33
2019-05-06T23:27:39.617Z,3.50
2019-05-06T23:30:10.070Z,3.57
2019-05-06T23:32:42.089Z,3.30
2019-05-06T23:35:12.945Z,3.37
2019-05-06T23:38:20.186Z,3.40
2019-05-06T23:41:27.548Z,3.63
2019-05-06T23:44:45.429Z,3.57
2019-05-06T23:47:41.713Z,3.43
2019-05-06T23:50:49.164Z,3.00
2019-05-06T23:53:54.703Z,3.97
2019-05-06T23:56:47.351Z,3.20
2019-05-06T23:59:18.656Z,3.57
